Time;durP1;ratioP1;P1;durP2;ratioP2;P2;SDS_P1;SDS_P2;PMS_P1;PMS_P2;Temp;Humidity;BMP_temperature;BMP_pressure;BME280_temperature;BME280_humidity;BME280_pressure;Samples;Min_cycle;Max_cycle;Signal;HPM_P1;HPM_P2
2023/11/01 00:01:35;;;;;;;6.07;3.45;;;;;;;6.08;100.00;100575.56;4940377;29;20067;-73
2023/11/01 00:04:01;;;;;;;5.30;3.25;;;;;;;6.05;100.00;100586.69;4938543;29;20091;-73
2023/11/01 00:06:28;;;;;;;6.47;4.45;;;;;;;6.04;100.00;100578.97;4923146;29;20413;-74
2023/11/01 00:08:53;;;;;;;;;;;;;;;6.03;100.00;100583.47;4941593;29;20035;-75
2023/11/01 00:11:19;;;;;;;7.03;3.90;;;;;;;6.02;100.00;100576.53;4943194;28;19919;-73
2023/11/01 00:13:47;;;;;;;7.57;3.15;;;;;;;6.02;100.00;100581.84;4941023;29;20028;-75
2023/11/01 00:16:13;;;;;;;5.57;3.92;;;;;;;6.05;100.00;100576.06;4940772;29;20406;-75
2023/11/01 00:18:39;;;;;;;7.07;3.83;;;;;;;6.08;100.00;100575.56;4905508;29;20046;-73
2023/11/01 00:21:04;;;;;;;6.88;3.70;;;;;;;6.10;100.00;100578.78;4938456;29;20051;-73
2023/11/01 00:23:30;;;;;;;6.43;3.00;;;;;;;6.11;100.00;100569.78;4911151;29;20739;-73
2023/11/01 00:25:56;;;;;;;7.05;3.28;;;;;;;6.12;100.00;100571.38;4906235;29;20083;-74
2023/11/01 00:28:22;;;;;;;8.35;3.72;;;;;;;6.14;100.00;100577.25;4934823;29;20166;-74
2023/11/01 00:30:47;;;;;;;6.60;3.15;;;;;;;6.13;100.00;100567.66;4920055;29;20046;-76
2023/11/01 00:33:13;;;;;;;7.97;3.35;;;;;;;6.13;100.00;100574.84;4924921;29;20046;-74
2023/11/01 00:35:39;;;;;;;5.00;3.08;;;;;;;6.16;100.00;100574.34;4928263;29;20035;-74
2023/11/01 00:38:06;;;;;;;7.90;3.33;;;;;;;6.14;100.00;100573.78;4933862;29;20075;-74
2023/11/01 00:40:34;;;;;;;5.93;2.88;;;;;;;6.12;100.00;100582.00;4922091;29;20142;-76
2023/11/01 00:42:59;;;;;;;5.95;3.47;;;;;;;6.12;100.00;100582.00;4939897;29;20043;-75
2023/11/01 00:45:25;;;;;;;8.25;4.45;;;;;;;6.14;100.00;100579.91;4932873;28;20053;-78
2023/11/01 00:47:51;;;;;;;5.60;3.45;;;;;;;6.16;100.00;100585.78;4928339;29;20038;-75
2023/11/01 00:50:16;;;;;;;6.65;3.95;;;;;;;6.18;100.00;100583.69;4941064;29;20432;-74
2023/11/01 00:52:44;;;;;;;6.75;3.85;;;;;;;6.18;100.00;100577.56;4904940;29;20611;-74
2023/11/01 00:55:09;;;;;;;9.40;3.58;;;;;;;6.19;100.00;100574.66;4941506;29;20097;-73
2023/11/01 00:57:35;;;;;;;7.70;4.28;;;;;;;6.18;100.00;100574.91;4926729;29;21051;-73
2023/11/01 01:00:01;;;;;;;6.55;3.55;;;;;;;6.18;100.00;100572.25;4927242;29;20050;-75
2023/11/01 01:02:27;;;;;;;7.68;4.13;;;;;;;6.20;100.00;100564.84;4897889;29;20039;-74
2023/11/01 01:04:52;;;;;;;7.88;3.78;;;;;;;6.20;100.00;100562.16;4924760;29;20166;-74
2023/11/01 01:07:17;;;;;;;6.00;4.75;;;;;;;6.21;100.00;100553.13;4906934;29;20047;-72
2023/11/01 01:09:44;;;;;;;5.18;3.45;;;;;;;6.19;100.00;100563.22;4928632;29;20053;-75
2023/11/01 01:12:09;;;;;;;6.15;4.20;;;;;;;6.20;100.00;100560.31;4935202;29;20043;-75
2023/11/01 01:14:35;;;;;;;6.05;3.33;;;;;;;6.20;100.00;100565.63;4919964;29;20042;-74
2023/11/01 01:17:01;;;;;;;10.52;4.05;;;;;;;6.19;100.00;100556.06;4934562;28;20570;-73
2023/11/01 01:19:26;;;;;;;7.40;4.53;;;;;;;6.18;100.00;100548.31;4922766;29;20054;-73
2023/11/01 01:21:52;;;;;;;6.43;3.63;;;;;;;6.19;100.00;100548.06;4939512;28;20799;-74
2023/11/01 01:24:18;;;;;;;6.68;3.50;;;;;;;6.18;100.00;100554.44;4941393;29;20086;-73
2023/11/01 01:26:46;;;;;;;6.22;3.20;;;;;;;6.20;100.00;100552.34;4942024;28;20043;-75
2023/11/01 01:29:12;;;;;;;7.30;3.47;;;;;;;6.22;100.00;100549.44;4918667;29;20055;-73
2023/11/01 01:31:37;;;;;;;;;;;;;;;6.21;100.00;100559.25;4925387;29;20461;-72
2023/11/01 01:34:03;;;;;;;7.85;3.60;;;;;;;6.22;100.00;100550.22;4942681;29;19925;-73
2023/11/01 01:36:29;;;;;;;4.80;3.72;;;;;;;6.21;100.00;100556.59;4916277;29;20138;-74
2023/11/01 01:38:55;;;;;;;5.55;3.30;;;;;;;6.20;100.00;100552.34;4923826;29;20732;-74
2023/11/01 01:41:21;;;;;;;6.85;3.85;;;;;;;6.21;100.00;100548.63;4935838;29;20045;-73
2023/11/01 01:43:47;;;;;;;4.82;2.50;;;;;;;6.18;100.00;100546.47;4892282;29;20035;-74
2023/11/01 01:46:15;;;;;;;3.50;2.55;;;;;;;6.21;100.00;100545.16;4920757;29;20050;-73
2023/11/01 01:48:42;;;;;;;6.55;3.15;;;;;;;6.20;100.00;100546.22;4912475;29;20039;-74
2023/11/01 01:51:09;;;;;;;4.70;2.83;;;;;;;6.21;100.00;100539.84;4937073;29;20051;-74
2023/11/01 01:53:37;;;;;;;6.85;2.50;;;;;;;6.20;100.00;100531.06;4925390;29;20044;-75
2023/11/01 01:56:04;;;;;;;4.32;2.42;;;;;;;6.20;100.00;100524.94;4931252;29;20528;-74
2023/11/01 01:58:30;;;;;;;5.47;2.95;;;;;;;6.18;100.00;100527.84;4934131;28;20051;-74
2023/11/01 02:00:56;;;;;;;5.53;2.50;;;;;;;6.20;100.00;100530.25;4910797;29;20667;-73
2023/11/01 02:03:22;;;;;;;5.15;2.60;;;;;;;6.24;100.00;100547.34;4934134;29;21086;-74
2023/11/01 02:05:48;;;;;;;;;;;;;;;6.24;100.00;100547.34;4921460;29;20039;-73
2023/11/01 02:08:14;;;;;;;3.92;2.28;;;;;;;6.24;100.00;100550.00;4929404;29;20715;-73
2023/11/01 02:10:40;;;;;;;3.85;2.10;;;;;;;6.23;100.00;100543.06;4941782;29;20066;-73
2023/11/01 02:13:10;;;;;;;3.75;1.90;;;;;;;6.20;100.00;100547.03;4917542;29;20118;-73
2023/11/01 02:15:35;;;;;;;4.22;2.15;;;;;;;6.23;100.00;100548.38;4914260;29;20047;-74
2023/11/01 02:18:01;;;;;;;2.78;1.80;;;;;;;6.23;100.00;100545.72;4920325;29;20382;-74
2023/11/01 02:20:29;;;;;;;3.25;2.20;;;;;;;6.24;100.00;100542.84;4934863;29;20087;-74
2023/11/01 02:22:55;;;;;;;4.82;2.10;;;;;;;6.24;100.00;100531.41;4921795;29;20040;-74
2023/11/01 02:25:21;;;;;;;5.20;2.30;;;;;;;6.26;100.00;100526.63;4905502;29;20421;-74
2023/11/01 02:27:47;;;;;;;;;;;;;;;6.24;100.00;100540.19;4932481;29;20614;-75
2023/11/01 02:30:16;;;;;;;3.53;1.73;;;;;;;6.24;100.00;100537.50;4920392;29;20024;-72
2023/11/01 02:32:47;;;;;;;4.40;2.08;;;;;;;6.23;100.00;100541.22;4935522;29;20039;-73
2023/11/01 02:35:15;;;;;;;3.17;1.85;;;;;;;6.22;100.00;100541.44;4907234;29;20043;-73
2023/11/01 02:37:40;;;;;;;7.43;2.10;;;;;;;6.22;100.00;100536.94;4919726;29;20098;-73
2023/11/01 02:40:08;;;;;;;3.80;1.88;;;;;;;6.23;100.00;100537.72;4925364;29;20043;-73
2023/11/01 02:42:33;;;;;;;4.60;2.33;;;;;;;6.24;100.00;100536.72;4922770;29;20102;-72
2023/11/01 02:44:59;;;;;;;2.70;1.75;;;;;;;6.25;100.00;100544.44;4921192;29;20448;-74
2023/11/01 02:47:25;;;;;;;6.10;2.85;;;;;;;6.20;100.00;100541.69;4916383;29;20047;-74
2023/11/01 02:49:51;;;;;;;;;;;;;;;6.20;100.00;100536.38;4937324;29;20868;-73
2023/11/01 02:52:17;;;;;;;3.70;1.70;;;;;;;6.19;100.00;100532.13;4906077;29;19930;-73
2023/11/01 02:54:42;;;;;;;4.38;1.52;;;;;;;6.20;100.00;100528.41;4905853;29;20708;-73
2023/11/01 02:57:08;;;;;;;4.82;1.75;;;;;;;6.18;100.00;100521.72;4929265;29;20122;-73
2023/11/01 02:59:34;;;;;;;4.70;1.83;;;;;;;6.17;100.00;100518.28;4919619;29;20118;-73
2023/11/01 03:02:00;;;;;;;3.00;1.73;;;;;;;6.16;100.00;100511.31;4915997;29;20114;-74
2023/11/01 03:04:25;;;;;;;4.57;2.08;;;;;;;6.14;100.00;100496.66;4934184;29;20051;-75
2023/11/01 03:06:51;;;;;;;4.70;2.10;;;;;;;6.14;100.00;100492.16;4936653;29;20078;-73
2023/11/01 03:09:17;;;;;;;6.18;1.98;;;;;;;6.14;100.00;100505.44;4923338;29;20063;-74
2023/11/01 03:11:43;;;;;;;3.60;1.80;;;;;;;6.11;100.00;100500.63;4939008;29;20040;-73
2023/11/01 03:14:09;;;;;;;4.60;1.80;;;;;;;6.11;100.00;100507.81;4926757;29;20046;-74
2023/11/01 03:16:36;;;;;;;4.03;1.83;;;;;;;6.14;100.00;100497.47;4929316;29;20043;-75
2023/11/01 03:19:02;;;;;;;5.03;1.63;;;;;;;6.13;100.00;100489.75;4929641;29;20046;-74
2023/11/01 03:21:27;;;;;;;4.57;2.13;;;;;;;6.11;100.00;100479.38;4938012;29;20047;-74
2023/11/01 03:23:54;;;;;;;3.70;1.55;;;;;;;6.12;100.00;100478.31;4939887;29;20420;-73
2023/11/01 03:26:20;;;;;;;5.85;1.92;;;;;;;6.12;100.00;100475.66;4942343;29;20043;-74
2023/11/01 03:28:46;;;;;;;5.35;1.92;;;;;;;6.13;100.00;100473.81;4937679;29;20152;-73
2023/11/01 03:31:13;;;;;;;6.15;2.13;;;;;;;6.15;100.00;100467.19;4928813;29;20048;-73
2023/11/01 03:33:38;;;;;;;3.97;2.50;;;;;;;6.16;100.00;100481.28;4935352;29;20038;-73
2023/11/01 03:36:07;;;;;;;4.03;1.65;;;;;;;6.16;100.00;100487.38;4922841;29;20027;-75
2023/11/01 03:38:33;;;;;;;6.38;2.10;;;;;;;6.13;100.00;100487.09;4936113;29;20046;-74
2023/11/01 03:40:59;;;;;;;3.70;1.45;;;;;;;6.13;100.00;100482.56;4940705;29;20043;-73
2023/11/01 03:43:24;;;;;;;3.85;1.83;;;;;;;6.16;100.00;100486.59;4924140;29;20106;-74
2023/11/01 03:45:50;;;;;;;3.97;1.65;;;;;;;6.15;100.00;100485.78;4942197;29;20501;-75
2023/11/01 03:48:16;;;;;;;4.88;1.48;;;;;;;6.16;100.00;100482.06;4912311;29;20182;-74
2023/11/01 03:50:41;;;;;;;2.92;2.00;;;;;;;6.17;100.00;100486.38;4927927;29;20042;-73
2023/11/01 03:53:08;;;;;;;5.32;1.52;;;;;;;6.16;100.00;100470.63;4913423;29;20047;-74
2023/11/01 03:55:34;;;;;;;6.05;1.75;;;;;;;6.14;100.00;100476.22;4909059;29;20042;-74
2023/11/01 03:57:59;;;;;;;4.50;1.17;;;;;;;6.16;100.00;100476.75;4940469;28;20035;-74
2023/11/01 04:00:25;;;;;;;3.22;1.38;;;;;;;6.17;100.00;100466.94;4940156;29;20031;-73
2023/11/01 04:02:51;;;;;;;2.42;1.15;;;;;;;6.12;100.00;100467.69;4939610;29;20057;-74
2023/11/01 04:05:17;;;;;;;3.60;1.20;;;;;;;6.14;100.00;100462.91;4921921;29;20039;-74
2023/11/01 04:07:43;;;;;;;3.50;1.33;;;;;;;6.10;100.00;100456.50;4924385;29;20039;-74
2023/11/01 04:10:10;;;;;;;3.42;1.15;;;;;;;6.10;100.00;100456.50;4916957;29;20070;-74
2023/11/01 04:12:36;;;;;;;5.05;1.50;;;;;;;6.13;100.00;100449.88;4927678;29;20047;-75
2023/11/01 04:15:09;;;;;;;2.88;1.17;;;;;;;6.08;100.00;100447.94;4940425;29;20142;-74
2023/11/01 04:17:35;;;;;;;4.95;1.65;;;;;;;6.06;100.00;100442.06;4936352;29;20386;-76
2023/11/01 04:20:03;;;;;;;4.25;1.13;;;;;;;6.08;100.00;100442.63;4925409;29;20035;-74
2023/11/01 04:22:28;;;;;;;1.98;1.08;;;;;;;6.09;100.00;100454.88;4924551;29;20053;-74
2023/11/01 04:24:56;;;;;;;2.78;0.77;;;;;;;6.06;100.00;100449.25;4943667;29;20098;-74
2023/11/01 04:27:23;;;;;;;4.13;0.90;;;;;;;6.05;100.00;100440.47;4927272;29;20125;-74
2023/11/01 04:29:54;;;;;;;3.17;0.98;;;;;;;6.04;100.00;100433.56;4940352;29;20043;-74
2023/11/01 04:32:21;;;;;;;5.93;0.98;;;;;;;6.08;100.00;100432.00;4913074;29;20083;-74
2023/11/01 04:34:51;;;;;;;4.70;1.00;;;;;;;6.06;100.00;100428.78;4912493;29;20572;-74
2023/11/01 04:37:18;;;;;;;2.95;0.98;;;;;;;6.05;100.00;100429.84;4936776;29;20050;-76
2023/11/01 04:39:46;;;;;;;4.50;1.42;;;;;;;6.05;100.00;100429.84;4942001;29;20106;-74
2023/11/01 04:42:17;;;;;;;3.75;1.20;;;;;;;6.01;100.00;100420.75;4911500;29;20104;-74
2023/11/01 04:44:44;;;;;;;3.00;1.13;;;;;;;6.06;100.00;100423.47;4942109;29;20786;-74
2023/11/01 04:47:10;;;;;;;2.78;1.20;;;;;;;5.99;100.00;100425.50;4919449;29;20054;-75
2023/11/01 04:49:37;;;;;;;3.85;1.40;;;;;;;5.92;100.00;100422.22;4939173;29;20031;-77
2023/11/01 04:52:06;;;;;;;1.67;0.93;;;;;;;5.93;100.00;100424.63;4907355;29;20537;-75
2023/11/01 04:54:35;;;;;;;3.40;1.60;;;;;;;5.95;100.00;100427.84;4922573;29;20027;-74
2023/11/01 04:57:01;;;;;;;3.85;1.10;;;;;;;5.94;100.00;100425.44;4924032;29;20394;-74
2023/11/01 04:59:31;;;;;;;4.30;1.15;;;;;;;5.98;100.00;100410.63;4919666;29;20099;-74
2023/11/01 05:01:57;;;;;;;3.58;1.30;;;;;;;5.96;100.00;100418.00;4937331;29;20035;-74
2023/11/01 05:04:23;;;;;;;2.60;1.05;;;;;;;5.98;100.00;100421.25;4927091;29;20098;-75
2023/11/01 05:06:50;;;;;;;3.85;1.10;;;;;;;5.95;100.00;100421.72;4938082;28;20039;-74
2023/11/01 05:09:17;;;;;;;3.90;1.15;;;;;;;5.99;100.00;100415.69;4936186;29;20031;-74
2023/11/01 05:11:43;;;;;;;;;;;;;;;5.96;100.00;100408.22;4922154;29;20560;-74
2023/11/01 05:14:09;;;;;;;4.93;1.13;;;;;;;5.89;100.00;100402.25;4924822;29;19919;-76
2023/11/01 05:16:34;;;;;;;4.88;1.38;;;;;;;5.92;100.00;100409.75;4916997;29;20047;-74
2023/11/01 05:19:00;;;;;;;4.25;1.25;;;;;;;5.93;100.00;100402.56;4940455;29;20132;-79
2023/11/01 05:21:26;;;;;;;6.47;1.48;;;;;;;5.89;100.00;100398.75;4927461;29;20066;-74
2023/11/01 05:23:52;;;;;;;2.28;1.33;;;;;;;5.86;100.00;100399.25;4926410;29;20079;-75
2023/11/01 05:26:18;;;;;;;3.78;1.10;;;;;;;5.87;100.00;100398.19;4941341;29;20480;-75
2023/11/01 05:28:44;;;;;;;2.63;1.55;;;;;;;5.89;100.00;100401.41;4909690;29;20122;-74
2023/11/01 05:31:09;;;;;;;5.32;1.38;;;;;;;5.85;100.00;100400.31;4918240;29;20050;-77
2023/11/01 05:33:35;;;;;;;4.82;1.38;;;;;;;5.87;100.00;100406.19;4923236;29;20045;-74
2023/11/01 05:36:06;;;;;;;4.05;1.58;;;;;;;5.82;100.00;100398.13;4940917;29;20105;-75
2023/11/01 05:38:32;;;;;;;3.60;1.23;;;;;;;5.82;100.00;100395.47;4941611;29;20500;-74
2023/11/01 05:40:58;;;;;;;3.28;1.50;;;;;;;5.84;100.00;100398.72;4935863;29;20119;-74
2023/11/01 05:43:24;;;;;;;4.53;1.50;;;;;;;5.82;100.00;100393.63;4902297;29;20494;-78
2023/11/01 05:45:49;;;;;;;4.10;1.90;;;;;;;5.77;100.00;100398.88;4926152;29;20826;-74
2023/11/01 05:48:15;;;;;;;2.88;1.23;;;;;;;5.78;100.00;100400.50;4936704;29;20086;-75
2023/11/01 05:50:43;;;;;;;4.88;1.67;;;;;;;5.77;100.00;100382.94;4908154;29;20035;-74
2023/11/01 05:53:10;;;;;;;5.45;1.45;;;;;;;5.80;100.00;100401.03;4929205;29;20405;-75
2023/11/01 05:55:37;;;;;;;4.80;1.85;;;;;;;5.82;100.00;100392.81;4924580;29;20351;-73
2023/11/01 05:58:07;;;;;;;3.83;1.25;;;;;;;5.75;100.00;100393.78;4942079;29;20077;-75
2023/11/01 06:00:38;;;;;;;4.25;1.90;;;;;;;5.74;100.00;100394.84;4922743;29;20039;-75
2023/11/01 06:03:06;;;;;;;3.65;1.50;;;;;;;5.73;100.00;100393.25;4939806;29;20039;-75
2023/11/01 06:05:35;;;;;;;4.53;1.60;;;;;;;5.70;100.00;100401.72;4907928;29;20103;-74
2023/11/01 06:08:04;;;;;;;6.15;1.70;;;;;;;5.73;100.00;100405.72;4935441;29;20146;-75
2023/11/01 06:10:30;;;;;;;2.67;1.55;;;;;;;5.74;100.00;100405.47;4905681;29;20074;-74
2023/11/01 06:12:56;;;;;;;6.45;1.40;;;;;;;5.73;100.00;100398.56;4924378;29;20070;-74
2023/11/01 06:15:22;;;;;;;3.55;1.70;;;;;;;5.80;100.00;100400.25;4937654;29;20056;-74
2023/11/01 06:17:47;;;;;;;4.45;1.88;;;;;;;5.80;100.00;100402.91;4937798;29;20035;-74
2023/11/01 06:20:15;;;;;;;3.15;1.73;;;;;;;5.75;100.00;100399.09;4927009;29;20416;-74
2023/11/01 06:22:40;;;;;;;3.17;2.03;;;;;;;5.82;100.00;100392.81;4936041;29;20031;-75
2023/11/01 06:25:08;;;;;;;3.97;1.58;;;;;;;5.87;100.00;100403.53;4927483;29;20448;-74
2023/11/01 06:27:35;;;;;;;4.30;1.88;;;;;;;5.82;100.00;100388.31;4938802;29;20050;-74
2023/11/01 06:30:04;;;;;;;6.18;1.70;;;;;;;5.84;100.00;100401.38;4925243;29;20046;-74
2023/11/01 06:32:37;;;;;;;5.38;1.80;;;;;;;5.88;100.00;100403.25;4917738;29;20036;-74
2023/11/01 06:35:03;;;;;;;4.18;1.83;;;;;;;5.87;100.00;100403.53;4938487;29;20043;-75
2023/11/01 06:37:28;;;;;;;;;;;;;;;5.86;100.00;100404.56;4924620;29;20130;-73
2023/11/01 06:39:55;;;;;;;4.80;1.85;;;;;;;5.87;100.00;100406.19;4922950;29;20411;-75
2023/11/01 06:42:20;;;;;;;4.03;1.75;;;;;;;5.89;100.00;100406.72;4925981;28;20789;-74
2023/11/01 06:44:46;;;;;;;6.43;1.95;;;;;;;5.89;100.00;100401.41;4926471;29;20094;-74
2023/11/01 06:47:12;;;;;;;4.75;1.77;;;;;;;5.87;100.00;100393.69;4939833;29;20118;-74
2023/11/01 06:49:38;;;;;;;4.72;1.98;;;;;;;5.87;100.00;100393.69;4940858;29;20039;-75
2023/11/01 06:52:05;;;;;;;5.50;1.77;;;;;;;5.90;100.00;100381.78;4943812;29;20039;-75
2023/11/01 06:54:32;;;;;;;4.20;1.60;;;;;;;5.91;100.00;100388.72;4948149;29;20086;-74
2023/11/01 06:56:58;;;;;;;4.47;1.90;;;;;;;5.88;100.00;100378.53;4929646;29;20572;-75
2023/11/01 06:59:24;;;;;;;6.75;2.10;;;;;;;5.91;100.00;100386.88;4925642;29;20054;-75
2023/11/01 07:01:49;;;;;;;7.55;2.45;;;;;;;5.93;100.00;100394.59;4925768;29;20149;-74
2023/11/01 07:04:15;;;;;;;6.88;2.13;;;;;;;5.91;100.00;100383.41;4941562;29;20074;-75
2023/11/01 07:06:42;;;;;;;6.88;3.20;;;;;;;5.93;100.00;100384.75;4942560;29;20035;-76
2023/11/01 07:09:09;;;;;;;8.05;2.30;;;;;;;5.91;100.00;100388.72;4929730;29;20544;-75
2023/11/01 07:11:38;;;;;;;10.20;2.33;;;;;;;5.96;100.00;100386.13;4939400;29;20515;-75
2023/11/01 07:14:04;;;;;;;5.68;2.42;;;;;;;5.94;100.00;100380.25;4928531;29;20450;-75
2023/11/01 07:16:31;;;;;;;6.00;2.00;;;;;;;5.95;100.00;100379.19;4943579;29;20062;-75
2023/11/01 07:18:58;;;;;;;7.97;2.10;;;;;;;5.97;100.00;100385.09;4943736;29;20490;-74
2023/11/01 07:21:24;;;;;;;6.30;2.30;;;;;;;5.99;100.00;100375.81;4930201;29;20050;-75
2023/11/01 07:23:49;;;;;;;;;;;;;;;5.98;100.00;100376.06;4919528;29;20180;-75
2023/11/01 07:26:17;;;;;;;8.85;2.42;;;;;;;5.97;100.00;100372.59;4944748;29;20016;-76
2023/11/01 07:28:44;;;;;;;5.18;2.88;;;;;;;5.95;100.00;100374.69;4937370;29;20166;-75
2023/11/01 07:31:09;;;;;;;4.50;2.20;;;;;;;6.00;100.00;100372.09;4943545;29;20047;-75
2023/11/01 07:33:37;;;;;;;5.65;1.98;;;;;;;6.01;100.00;100363.06;4927153;29;20042;-76
2023/11/01 07:36:04;;;;;;;6.60;2.55;;;;;;;6.04;100.00;100363.63;4941200;29;20130;-76
2023/11/01 07:38:29;;;;;;;4.50;2.00;;;;;;;6.01;100.00;100370.22;4910679;29;20043;-75
2023/11/01 07:40:55;;;;;;;5.95;2.30;;;;;;;6.05;100.00;100374.00;4937932;29;20053;-75
2023/11/01 07:43:22;;;;;;;6.90;2.45;;;;;;;6.06;100.00;100364.97;4939056;29;20158;-74
2023/11/01 07:45:49;;;;;;;5.03;2.58;;;;;;;6.08;100.00;100378.81;4916632;29;20509;-75
2023/11/01 07:48:15;;;;;;;8.18;2.20;;;;;;;6.08;100.00;100367.38;4923017;29;20043;-74
2023/11/01 07:50:42;;;;;;;5.85;2.35;;;;;;;6.10;100.00;100363.44;4936953;29;20098;-74
2023/11/01 07:53:08;;;;;;;4.40;2.30;;;;;;;6.19;100.00;100369.91;4926676;29;20031;-74
2023/11/01 07:55:34;;;;;;;5.68;2.53;;;;;;;6.19;100.00;100369.13;4944759;28;20031;-75
2023/11/01 07:58:00;;;;;;;6.90;3.00;;;;;;;6.19;100.00;100353.16;4923430;29;20050;-75
2023/11/01 08:00:26;;;;;;;;;;;;;;;6.20;100.00;100347.59;4929792;29;20109;-74
2023/11/01 08:02:53;;;;;;;6.13;2.60;;;;;;;6.21;100.00;100351.84;4910216;29;20448;-76
2023/11/01 08:05:19;;;;;;;7.80;2.50;;;;;;;6.24;100.00;100348.69;4944432;29;20772;-74
2023/11/01 08:07:45;;;;;;;5.22;2.70;;;;;;;6.25;100.00;100342.34;4937972;29;20039;-74
2023/11/01 08:10:11;;;;;;;8.63;2.70;;;;;;;6.27;100.00;100345.53;4929309;29;20062;-75
2023/11/01 08:12:37;;;;;;;8.05;2.95;;;;;;;6.28;100.00;100341.81;4944387;29;20114;-73
2023/11/01 08:15:04;;;;;;;7.45;2.60;;;;;;;6.29;100.00;100343.41;4923696;29;20024;-74
2023/11/01 08:17:30;;;;;;;8.43;2.75;;;;;;;6.36;100.00;100339.75;4927634;29;20039;-74
2023/11/01 08:19:57;;;;;;;9.55;3.00;;;;;;;6.37;100.00;100344.84;4938208;29;20512;-75
2023/11/01 08:22:23;;;;;;;6.57;2.38;;;;;;;6.42;100.00;100338.75;4910563;29;20050;-74
2023/11/01 08:24:49;;;;;;;8.65;3.25;;;;;;;6.46;100.00;100332.69;4934211;29;20039;-75
2023/11/01 08:27:14;;;;;;;5.90;2.72;;;;;;;6.51;100.00;100324.75;4909627;29;20039;-74
2023/11/01 08:29:42;;;;;;;9.90;3.28;;;;;;;6.53;100.00;100327.16;4927428;29;20464;-74
2023/11/01 08:32:09;;;;;;;5.57;2.70;;;;;;;6.57;100.00;100326.41;4906730;29;20151;-74
2023/11/01 08:34:35;;;;;;;6.13;2.92;;;;;;;6.59;100.00;100325.34;4944525;29;21102;-74
2023/11/01 08:37:01;;;;;;;5.45;2.80;;;;;;;6.56;100.00;100316.81;4923996;29;20036;-74
2023/11/01 08:39:27;;;;;;;5.75;2.58;;;;;;;6.55;100.00;100319.72;4939511;29;20075;-78
2023/11/01 08:42:12;;;;;;;6.28;2.97;;;;;;;6.63;100.00;100316.59;4944473;29;20155;-76
2023/11/01 08:44:56;;;;;;;;;;;;;;;6.69;100.00;100317.44;4942163;29;20409;-74
2023/11/01 08:47:33;;;;;;;8.00;3.40;;;;;;;6.73;100.00;100316.69;4925199;29;19919;-74
2023/11/01 08:50:00;;;;;;;5.90;3.85;;;;;;;6.77;100.00;100312.47;4924139;29;20042;-74
2023/11/01 08:52:26;;;;;;;8.35;2.88;;;;;;;6.84;100.00;100310.41;4939903;29;20063;-74
2023/11/01 08:54:52;;;;;;;7.38;3.92;;;;;;;6.89;100.00;100303.50;4939435;28;20035;-73
2023/11/01 08:57:22;;;;;;;6.75;3.45;;;;;;;6.89;100.00;100311.47;4937068;29;20035;-75
2023/11/01 08:59:50;;;;;;;8.45;3.53;;;;;;;6.90;100.00;100305.88;4924340;29;20031;-74
2023/11/01 09:02:17;;;;;;;7.85;3.80;;;;;;;6.95;100.00;100307.78;4926748;29;20038;-75
2023/11/01 09:04:42;;;;;;;7.25;3.63;;;;;;;6.97;100.00;100314.47;4929954;29;20031;-74
2023/11/01 09:07:09;;;;;;;8.32;3.22;;;;;;;7.03;100.00;100308.09;4939997;28;20047;-75
2023/11/01 09:09:37;;;;;;;7.65;3.33;;;;;;;7.05;100.00;100305.22;4944929;29;20512;-75
2023/11/01 09:12:03;;;;;;;10.25;4.13;;;;;;;7.06;100.00;100304.16;4910754;29;20039;-75
2023/11/01 09:14:29;;;;;;;10.32;3.90;;;;;;;7.11;100.00;100312.16;4942127;29;20035;-75
2023/11/01 09:16:55;;;;;;;6.57;3.58;;;;;;;7.16;100.00;100306.06;4924389;29;20787;-75
2023/11/01 09:19:21;;;;;;;9.20;4.05;;;;;;;7.19;100.00;100302.91;4942278;29;20047;-75
2023/11/01 09:21:47;;;;;;;11.18;4.55;;;;;;;7.20;100.00;100299.19;4940106;29;20035;-74
2023/11/01 09:24:13;;;;;;;10.00;3.72;;;;;;;7.23;100.00;100299.44;4944096;29;20528;-74
2023/11/01 09:26:39;;;;;;;8.25;3.72;;;;;;;7.27;100.00;100303.22;4941254;29;20035;-74
2023/11/01 09:29:04;;;;;;;9.07;4.80;;;;;;;7.30;100.00;100291.22;4926663;29;22300;-78
2023/11/01 09:31:35;;;;;;;9.50;4.10;;;;;;;7.35;100.00;100286.72;4922266;29;20039;-74
2023/11/01 09:34:01;;;;;;;8.52;4.75;;;;;;;7.40;100.00;100288.63;4912897;29;20043;-76
2023/11/01 09:36:27;;;;;;;13.45;5.90;;;;;;;7.45;100.00;100286.00;4940343;29;20046;-75
2023/11/01 09:38:54;;;;;;;13.57;5.85;;;;;;;7.51;100.00;100289.47;4921469;29;20031;-74
2023/11/01 09:41:48;;;;;;;7.80;5.10;;;;;;;7.65;100.00;100290.59;4909851;29;20716;-75
2023/11/01 09:44:16;;;;;;;10.32;4.97;;;;;;;7.73;100.00;100281.31;4937941;29;20122;-74
2023/11/01 09:46:42;;;;;;;10.38;5.25;;;;;;;7.77;100.00;100288.50;4907795;29;20694;-74
2023/11/01 09:49:07;;;;;;;11.45;5.05;;;;;;;7.81;100.00;100276.25;4940855;29;20035;-74
2023/11/01 09:51:34;;;;;;;10.60;5.43;;;;;;;7.87;100.00;100269.88;4938718;29;20826;-74
2023/11/01 09:54:04;;;;;;;;;;;;;;;7.92;100.00;100269.91;4936806;29;20031;-75
2023/11/01 09:56:37;;;;;;;12.23;4.78;;;;;;;7.98;100.00;100261.88;4929598;29;20443;-75
2023/11/01 09:59:05;;;;;;;9.00;5.40;;;;;;;8.04;100.00;100261.63;4935211;29;20780;-75
2023/11/01 10:01:32;;;;;;;11.73;4.88;;;;;;;8.06;100.00;100264.03;4941139;29;20051;-75
2023/11/01 10:03:59;;;;;;;11.15;5.95;;;;;;;8.13;100.00;100264.59;4942038;29;20410;-75
2023/11/01 10:06:27;;;;;;;9.68;5.60;;;;;;;8.20;100.00;100244.59;4923173;29;20046;-74
2023/11/01 10:08:55;;;;;;;8.50;5.72;;;;;;;8.37;100.00;100243.56;4908682;29;20138;-75
2023/11/01 10:11:22;;;;;;;8.07;5.78;;;;;;;8.47;100.00;100247.03;4909368;29;20683;-75
2023/11/01 10:13:49;;;;;;;10.43;5.82;;;;;;;8.59;100.00;100246.75;4941332;28;20098;-75
2023/11/01 10:16:16;;;;;;;11.65;6.68;;;;;;;8.66;100.00;100241.13;4939870;29;20039;-75
2023/11/01 10:18:42;;;;;;;12.57;5.28;;;;;;;8.73;100.00;100239.00;4927839;29;20027;-77
2023/11/01 10:21:08;;;;;;;10.82;5.90;;;;;;;8.77;100.00;100232.06;4937987;29;20039;-76
2023/11/01 10:23:35;;;;;;;12.02;5.97;;;;;;;8.85;100.00;100236.84;4936541;29;20049;-75
2023/11/01 10:26:01;;;;;;;;;;;;;;;8.90;100.00;100238.72;4925738;29;20058;-75
2023/11/01 10:28:27;;;;;;;10.75;5.47;;;;;;;8.97;100.00;100228.56;4910494;29;20373;-74
2023/11/01 10:30:53;;;;;;;10.95;5.70;;;;;;;9.00;100.00;100226.13;4925416;29;20050;-74
2023/11/01 10:33:22;;;;;;;10.68;6.40;;;;;;;9.01;100.00;100224.28;4925951;29;20400;-75
2023/11/01 10:35:59;;;;;;;14.32;6.72;;;;;;;9.09;100.00;100222.91;4941828;29;20857;-74
2023/11/01 10:38:26;;;;;;;12.85;6.60;;;;;;;9.14;100.00;100214.88;4923314;29;20083;-74
2023/11/01 10:40:52;;;;;;;13.07;6.45;;;;;;;9.18;100.00;100199.91;4938490;29;20035;-74
2023/11/01 10:43:19;;;;;;;9.48;5.63;;;;;;;9.21;100.00;100202.84;4914666;29;20063;-74
2023/11/01 10:45:49;;;;;;;14.05;6.53;;;;;;;9.28;100.00;100195.31;4923785;29;20031;-74
2023/11/01 10:48:15;;;;;;;10.82;6.50;;;;;;;9.37;100.00;100198.22;4939238;29;20673;-74
2023/11/01 10:50:43;;;;;;;11.55;5.80;;;;;;;9.46;100.00;100196.56;4926425;29;20039;-74
2023/11/01 10:53:11;;;;;;;10.32;6.13;;;;;;;9.53;100.00;100181.03;4925549;29;20070;-74
2023/11/01 10:55:38;;;;;;;11.30;6.50;;;;;;;9.61;100.00;100184.19;4939357;29;20117;-73
2023/11/01 10:58:06;;;;;;;10.98;5.53;;;;;;;9.68;100.00;100182.00;4919371;29;20115;-74
2023/11/01 11:00:38;;;;;;;11.40;5.75;;;;;;;9.79;100.00;100170.19;4891103;29;20046;-75
2023/11/01 11:03:37;;;;;;;12.88;5.78;;;;;;;9.83;100.00;100164.00;4922750;29;20050;-75
2023/11/01 11:06:10;;;;;;;9.75;6.47;;;;;;;9.85;100.00;100166.38;4937916;29;20134;-74
2023/11/01 11:08:36;;;;;;;9.60;5.28;;;;;;;9.92;100.00;100161.53;4928506;29;20035;-75
2023/11/01 11:11:18;;;;;;;12.45;6.50;;;;;;;9.96;100.00;100159.91;4926685;29;20473;-75
2023/11/01 11:13:49;;;;;;;10.52;5.50;;;;;;;10.03;100.00;100156.91;4924173;29;20094;-74
2023/11/01 11:16:18;;;;;;;11.35;5.85;;;;;;;10.06;100.00;100151.78;4939580;29;20118;-77
2023/11/01 11:18:44;;;;;;;9.13;5.35;;;;;;;10.09;100.00;100145.88;4941082;29;20035;-74
2023/11/01 11:21:45;;;;;;;9.70;5.57;;;;;;;10.15;100.00;100143.16;4922118;29;20051;-76
2023/11/01 11:24:41;;;;;;;9.68;5.57;;;;;;;10.16;100.00;100137.53;4933384;29;20054;-76
2023/11/01 11:27:49;;;;;;;10.85;6.10;;;;;;;10.18;100.00;100130.00;4923713;29;20051;-77